createdAt,value
2024-02-19T00:00:14.218Z,10.70
2024-02-19T00:02:41.013Z,10.60
2024-02-19T00:05:08.338Z,10.60
2024-02-19T00:07:35.283Z,10.50
2024-02-19T00:10:02.562Z,10.50
2024-02-19T00:12:29.443Z,10.40
2024-02-19T00:14:56.245Z,10.40
2024-02-19T00:17:23.205Z,10.30
2024-02-19T00:19:50.152Z,10.40
2024-02-19T00:22:17.067Z,10.30
2024-02-19T00:24:43.948Z,10.30
2024-02-19T00:27:10.787Z,10.30
2024-02-19T00:29:37.534Z,10.30
2024-02-19T00:32:04.464Z,10.20
2024-02-19T00:34:31.236Z,10.20
2024-02-19T00:36:58.149Z,10.10
2024-02-19T00:39:25.109Z,10.10
2024-02-19T00:41:51.892Z,10.00
2024-02-19T00:44:18.693Z,10.10
2024-02-19T00:46:45.452Z,10.10
2024-02-19T00:49:12.308Z,10.00
2024-02-19T00:51:39.150Z,9.90
2024-02-19T00:54:05.927Z,9.90
2024-02-19T00:56:32.811Z,9.90
2024-02-19T00:58:59.694Z,9.80
2024-02-19T01:01:26.599Z,9.70
2024-02-19T01:03:53.574Z,9.70
2024-02-19T01:06:20.477Z,9.60
2024-02-19T01:08:47.247Z,9.60
2024-02-19T01:11:14.184Z,9.60
2024-02-19T01:13:41.066Z,9.60
2024-02-19T01:16:09.586Z,9.60
2024-02-19T01:18:37.224Z,9.60
2024-02-19T01:21:04.638Z,9.60
2024-02-19T01:23:31.381Z,9.60
2024-02-19T01:25:58.213Z,9.60
2024-02-19T01:28:25.195Z,9.60
2024-02-19T01:30:52.129Z,9.60
2024-02-19T01:33:18.947Z,9.50
2024-02-19T01:35:46.146Z,9.50
2024-02-19T01:38:13.233Z,9.50
2024-02-19T01:40:40.036Z,9.40
2024-02-19T01:43:08.467Z,9.50
2024-02-19T01:45:35.515Z,9.50
2024-02-19T01:48:03.263Z,9.50
2024-02-19T01:50:33.665Z,9.40
2024-02-19T01:53:01.776Z,9.40
2024-02-19T01:55:28.576Z,9.40
2024-02-19T01:57:55.799Z,9.40
2024-02-19T02:00:22.656Z,9.40
2024-02-19T02:02:49.431Z,9.30
2024-02-19T02:05:16.722Z,9.30
2024-02-19T02:07:45.100Z,9.30
2024-02-19T02:10:11.950Z,9.30
2024-02-19T02:12:39.004Z,9.30
2024-02-19T02:15:06.361Z,9.30
2024-02-19T02:17:33.976Z,9.30
2024-02-19T02:20:00.920Z,9.20
2024-02-19T02:22:27.883Z,9.20
2024-02-19T02:24:54.771Z,9.10
2024-02-19T02:27:21.588Z,9.10
2024-02-19T02:29:48.411Z,9.10
2024-02-19T02:32:15.242Z,9.00
2024-02-19T02:34:42.090Z,9.00
2024-02-19T02:37:08.899Z,9.00
2024-02-19T02:39:35.754Z,8.90
2024-02-19T02:42:02.766Z,8.90
2024-02-19T02:44:29.618Z,8.90
2024-02-19T02:46:56.469Z,8.90
2024-02-19T02:49:23.330Z,8.90
2024-02-19T02:51:50.174Z,9.00
2024-02-19T02:54:16.988Z,9.00
2024-02-19T02:56:43.997Z,9.00
2024-02-19T02:59:10.758Z,9.00
2024-02-19T03:01:37.620Z,9.00
2024-02-19T03:04:04.664Z,9.00
2024-02-19T03:06:31.541Z,8.90
2024-02-19T03:08:58.413Z,9.00
2024-02-19T03:11:25.507Z,8.90
2024-02-19T03:13:52.676Z,8.90
2024-02-19T03:16:19.694Z,9.00
2024-02-19T03:18:47.134Z,9.00
2024-02-19T03:21:17.084Z,9.00
2024-02-19T03:23:53.520Z,9.00
2024-02-19T03:26:34.600Z,9.00
2024-02-19T03:29:13.130Z,8.90
2024-02-19T03:31:43.711Z,8.80
2024-02-19T03:34:10.947Z,8.70
2024-02-19T03:36:38.198Z,8.70
2024-02-19T03:39:05.882Z,8.70
2024-02-19T03:41:33.174Z,8.80
2024-02-19T03:44:00.592Z,8.70
2024-02-19T03:46:27.608Z,8.70
2024-02-19T03:48:56.631Z,8.60
2024-02-19T03:51:23.936Z,8.60
2024-02-19T03:53:50.820Z,8.50
2024-02-19T03:56:18.836Z,8.50
2024-02-19T03:58:46.150Z,8.50
2024-02-19T04:01:13.457Z,8.40
2024-02-19T04:03:40.430Z,8.40
2024-02-19T04:06:07.458Z,8.40
2024-02-19T04:08:34.345Z,8.40
2024-02-19T04:11:01.177Z,8.40
2024-02-19T04:13:27.960Z,8.40
2024-02-19T04:15:56.152Z,8.40
2024-02-19T04:18:23.480Z,8.50
2024-02-19T04:20:50.362Z,8.40
2024-02-19T04:23:17.112Z,8.40
2024-02-19T04:25:43.891Z,8.40
2024-02-19T04:28:10.668Z,8.40
2024-02-19T04:30:37.719Z,8.50
2024-02-19T04:33:05.983Z,8.50
2024-02-19T04:35:32.867Z,8.40
2024-02-19T04:37:59.646Z,8.40
2024-02-19T04:40:26.488Z,8.30
2024-02-19T04:42:53.284Z,8.20
2024-02-19T04:45:20.052Z,8.20
2024-02-19T04:47:46.796Z,8.20
2024-02-19T04:50:13.825Z,8.30
2024-02-19T04:52:40.729Z,8.30
2024-02-19T04:55:07.903Z,8.30
2024-02-19T04:57:34.713Z,8.30
2024-02-19T05:00:01.564Z,8.20
2024-02-19T05:02:28.383Z,8.20
2024-02-19T05:04:55.385Z,8.20
2024-02-19T05:07:22.405Z,8.10
2024-02-19T05:09:49.721Z,8.00
2024-02-19T05:12:16.494Z,8.10
2024-02-19T05:14:43.796Z,8.10
2024-02-19T05:17:10.577Z,8.20
2024-02-19T05:19:37.493Z,8.20
2024-02-19T05:22:04.554Z,8.20
2024-02-19T05:24:32.279Z,8.20
2024-02-19T05:26:59.201Z,8.30
2024-02-19T05:29:26.188Z,8.30
2024-02-19T05:31:53.129Z,8.30
2024-02-19T05:34:20.669Z,8.40
2024-02-19T05:36:48.325Z,8.40
2024-02-19T05:39:15.287Z,8.40
2024-02-19T05:41:42.555Z,8.40
2024-02-19T05:44:10.742Z,8.40
2024-02-19T05:46:37.834Z,8.50
2024-02-19T05:49:04.836Z,8.50
2024-02-19T05:51:31.802Z,8.60
2024-02-19T05:53:58.571Z,8.60
2024-02-19T05:56:27.309Z,8.70
2024-02-19T05:58:54.084Z,8.70
2024-02-19T06:01:21.045Z,8.70
2024-02-19T06:03:47.961Z,8.70
2024-02-19T06:06:15.003Z,8.80
2024-02-19T06:08:41.941Z,8.80
2024-02-19T06:11:09.270Z,8.80
2024-02-19T06:13:36.125Z,8.90
2024-02-19T06:16:03.068Z,8.90
2024-02-19T06:18:30.171Z,9.00
2024-02-19T06:20:56.970Z,9.00
2024-02-19T06:23:24.321Z,9.10
2024-02-19T06:25:54.195Z,9.10
2024-02-19T06:28:21.463Z,9.20
2024-02-19T06:30:48.402Z,9.20
2024-02-19T06:33:16.889Z,9.20
2024-02-19T06:35:43.905Z,9.30
2024-02-19T06:38:10.666Z,9.30
2024-02-19T06:40:37.454Z,9.40
2024-02-19T06:43:04.436Z,9.40
2024-02-19T06:45:31.252Z,9.40
2024-02-19T06:47:58.112Z,9.40
2024-02-19T06:50:25.364Z,9.40
2024-02-19T06:52:52.105Z,9.40
2024-02-19T06:55:19.080Z,9.40
2024-02-19T06:57:46.046Z,9.50
2024-02-19T07:00:13.617Z,9.50
2024-02-19T07:02:40.666Z,9.50
2024-02-19T07:05:09.050Z,9.50
2024-02-19T07:07:37.443Z,9.50
2024-02-19T07:10:05.180Z,9.50
2024-02-19T07:12:32.203Z,9.50
2024-02-19T07:14:59.420Z,9.50
2024-02-19T07:17:27.651Z,9.50
2024-02-19T07:19:54.760Z,9.50
2024-02-19T07:22:22.039Z,9.50
2024-02-19T07:24:49.130Z,9.50
2024-02-19T07:27:15.957Z,9.50
2024-02-19T07:29:43.163Z,9.50
2024-02-19T07:32:10.176Z,9.50
2024-02-19T07:34:38.433Z,9.50
2024-02-19T07:37:06.132Z,9.50
2024-02-19T07:39:32.986Z,9.40
2024-02-19T07:42:00.011Z,9.50
2024-02-19T07:44:27.044Z,9.50
2024-02-19T07:46:53.857Z,9.50
2024-02-19T07:49:21.098Z,9.50
2024-02-19T07:51:48.001Z,9.50
2024-02-19T07:54:14.902Z,9.40
2024-02-19T07:56:41.674Z,9.40
2024-02-19T07:59:08.465Z,9.50
2024-02-19T08:01:35.435Z,9.50
2024-02-19T08:04:02.530Z,9.50
2024-02-19T08:06:30.347Z,9.60
2024-02-19T08:08:57.185Z,9.60
2024-02-19T08:11:24.609Z,9.60
2024-02-19T08:13:52.530Z,9.70
2024-02-19T08:16:19.558Z,9.70
2024-02-19T08:18:46.537Z,9.80
2024-02-19T08:21:14.285Z,9.80
2024-02-19T08:23:41.171Z,9.80
2024-02-19T08:26:08.033Z,9.90
2024-02-19T08:28:34.947Z,10.00
2024-02-19T08:31:01.948Z,10.00
2024-02-19T08:33:29.043Z,10.00
2024-02-19T08:35:55.908Z,10.00
2024-02-19T08:38:22.749Z,10.10
2024-02-19T08:40:49.553Z,10.10
2024-02-19T08:43:17.148Z,10.10
2024-02-19T08:45:44.105Z,10.10
2024-02-19T08:48:11.100Z,10.10
2024-02-19T08:50:38.185Z,10.10
2024-02-19T08:53:05.055Z,10.20
2024-02-19T08:55:35.881Z,10.10
2024-02-19T08:58:02.760Z,10.10
2024-02-19T09:00:33.735Z,10.10
2024-02-19T09:03:00.941Z,10.10
2024-02-19T09:05:28.326Z,10.10
2024-02-19T09:07:57.948Z,10.20
2024-02-19T09:10:24.870Z,10.20
2024-02-19T09:12:51.640Z,10.20
2024-02-19T09:15:20.768Z,10.20
2024-02-19T09:17:47.632Z,10.20
2024-02-19T09:20:14.536Z,10.30
2024-02-19T09:22:44.189Z,10.20
2024-02-19T09:25:11.151Z,10.20
2024-02-19T09:27:38.008Z,10.20
2024-02-19T09:30:05.196Z,10.20
2024-02-19T09:32:32.034Z,10.20
2024-02-19T09:34:58.929Z,10.20
2024-02-19T09:37:26.771Z,10.20
2024-02-19T09:39:59.682Z,10.30
2024-02-19T09:42:27.876Z,10.30
2024-02-19T09:44:55.029Z,10.30
2024-02-19T09:47:22.253Z,10.20
2024-02-19T09:49:49.828Z,10.20
2024-02-19T09:52:26.931Z,10.20
2024-02-19T09:54:56.167Z,10.30
2024-02-19T09:57:23.241Z,10.30
2024-02-19T09:59:50.220Z,10.40
2024-02-19T10:02:20.865Z,10.40
2024-02-19T10:04:51.012Z,10.50
2024-02-19T10:07:19.557Z,10.50
2024-02-19T10:09:49.551Z,10.50
2024-02-19T10:12:20.576Z,10.60
2024-02-19T10:14:47.383Z,10.60
2024-02-19T10:17:21.312Z,10.80
2024-02-19T10:19:49.158Z,10.90
2024-02-19T10:22:18.202Z,10.90
2024-02-19T10:24:45.206Z,10.90
2024-02-19T10:27:11.998Z,10.80
2024-02-19T10:29:38.929Z,10.80
2024-02-19T10:32:05.917Z,10.80
2024-02-19T10:34:32.825Z,10.80
2024-02-19T10:37:00.197Z,10.80
2024-02-19T10:39:28.860Z,10.80
2024-02-19T10:41:55.681Z,10.80
2024-02-19T10:44:22.953Z,10.80
2024-02-19T10:46:49.787Z,10.90
2024-02-19T10:49:20.793Z,10.80
2024-02-19T10:51:48.026Z,10.70
2024-02-19T10:54:18.116Z,10.70
2024-02-19T10:56:45.519Z,10.70
2024-02-19T10:59:13.084Z,10.50
2024-02-19T11:01:47.845Z,10.50
2024-02-19T11:04:18.369Z,10.50
2024-02-19T11:06:58.592Z,10.40
2024-02-19T11:09:31.041Z,10.50
2024-02-19T11:11:59.982Z,10.60
2024-02-19T11:14:29.243Z,10.50
2024-02-19T11:16:58.110Z,10.60
2024-02-19T11:19:25.909Z,10.60
2024-02-19T11:22:10.381Z,10.70
2024-02-19T11:24:37.644Z,10.70
2024-02-19T11:27:08.258Z,10.70
2024-02-19T11:29:43.493Z,10.70
2024-02-19T11:32:19.783Z,10.70
2024-02-19T11:34:48.266Z,10.60
2024-02-19T11:37:15.295Z,10.60
2024-02-19T11:39:44.018Z,10.50
2024-02-19T11:42:13.398Z,10.50
2024-02-19T11:44:40.400Z,10.60
2024-02-19T11:47:09.004Z,10.60
2024-02-19T11:49:36.080Z,10.60
2024-02-19T11:52:10.856Z,10.70
2024-02-19T11:54:39.861Z,10.70
2024-02-19T11:57:08.852Z,10.90
2024-02-19T11:59:38.845Z,11.00
2024-02-19T12:02:10.842Z,11.00
2024-02-19T12:04:38.630Z,11.10
2024-02-19T12:07:06.771Z,11.20
2024-02-19T12:09:33.560Z,11.30
2024-02-19T12:12:01.668Z,11.40
2024-02-19T12:14:28.589Z,11.50
2024-02-19T12:16:56.385Z,11.50
2024-02-19T12:19:23.298Z,11.60
2024-02-19T12:21:50.890Z,11.70
2024-02-19T12:24:17.938Z,11.80
2024-02-19T12:26:45.829Z,12.00
2024-02-19T12:29:13.809Z,12.20
2024-02-19T12:31:40.614Z,12.40
2024-02-19T12:34:07.686Z,12.50
2024-02-19T12:36:34.647Z,12.50
2024-02-19T12:39:02.444Z,12.60
2024-02-19T12:41:29.428Z,12.60
2024-02-19T12:43:57.171Z,12.60
2024-02-19T12:46:25.425Z,12.70
2024-02-19T12:48:52.851Z,12.70
2024-02-19T12:51:20.036Z,12.70
2024-02-19T12:53:46.910Z,12.70
2024-02-19T12:56:13.871Z,12.70
2024-02-19T12:58:40.731Z,12.60
2024-02-19T13:01:20.298Z,12.60
2024-02-19T13:03:54.657Z,12.50
2024-02-19T13:06:21.880Z,12.50
2024-02-19T13:08:49.143Z,12.50
2024-02-19T13:11:18.030Z,12.50
2024-02-19T13:13:45.098Z,12.60
2024-02-19T13:16:15.697Z,12.60
2024-02-19T13:18:43.065Z,12.60
2024-02-19T13:21:10.169Z,12.60
2024-02-19T13:23:37.480Z,12.60
2024-02-19T13:26:04.942Z,12.60
2024-02-19T13:28:32.210Z,12.70
2024-02-19T13:30:59.432Z,12.70
2024-02-19T13:33:26.509Z,12.70
2024-02-19T13:35:53.776Z,12.70
2024-02-19T13:38:22.789Z,12.70
2024-02-19T13:40:51.184Z,12.70
2024-02-19T13:43:18.376Z,12.70
2024-02-19T13:46:00.473Z,12.80
2024-02-19T13:48:28.013Z,13.00
2024-02-19T13:50:58.321Z,13.10
2024-02-19T13:53:28.716Z,13.20
2024-02-19T13:55:56.224Z,13.30
2024-02-19T13:58:23.635Z,13.30
2024-02-19T14:00:51.061Z,13.30
2024-02-19T14:03:18.037Z,13.30
2024-02-19T14:05:45.989Z,13.40
2024-02-19T14:08:13.872Z,13.40
2024-02-19T14:10:40.886Z,13.40
2024-02-19T14:13:07.852Z,13.30
2024-02-19T14:15:34.687Z,13.20
2024-02-19T14:18:01.519Z,13.20
2024-02-19T14:20:28.418Z,13.30
2024-02-19T14:22:55.170Z,13.30
2024-02-19T14:25:22.206Z,13.30
2024-02-19T14:27:52.281Z,13.30
2024-02-19T14:30:21.946Z,13.30
2024-02-19T14:32:48.942Z,13.20
2024-02-19T14:35:16.225Z,13.20
2024-02-19T14:37:44.514Z,13.30
2024-02-19T14:40:14.869Z,13.20
2024-02-19T14:42:42.670Z,13.20
2024-02-19T14:45:09.838Z,13.20
2024-02-19T14:47:38.399Z,13.30
2024-02-19T14:50:09.453Z,13.30
2024-02-19T14:52:37.118Z,13.30
2024-02-19T14:55:15.446Z,13.20
2024-02-19T14:57:43.832Z,13.30
2024-02-19T15:00:11.519Z,13.40
2024-02-19T15:02:39.344Z,13.30
2024-02-19T15:05:08.590Z,13.20
2024-02-19T15:07:36.329Z,13.00
2024-02-19T15:10:03.669Z,12.90
2024-02-19T15:12:30.650Z,12.90
2024-02-19T15:14:57.525Z,12.90
2024-02-19T15:17:24.328Z,12.90
2024-02-19T15:19:51.229Z,12.90
2024-02-19T15:22:18.271Z,12.90
2024-02-19T15:24:45.207Z,12.80
2024-02-19T15:27:12.222Z,12.90
2024-02-19T15:29:39.425Z,12.80
2024-02-19T15:32:11.360Z,12.80
2024-02-19T15:34:38.562Z,12.90
2024-02-19T15:37:05.519Z,12.90
2024-02-19T15:39:32.373Z,13.10
2024-02-19T15:41:59.189Z,13.30
2024-02-19T15:44:26.126Z,13.50
2024-02-19T15:46:53.329Z,13.60
2024-02-19T15:49:20.992Z,13.70
2024-02-19T15:51:48.046Z,13.90
2024-02-19T15:54:14.943Z,14.10
2024-02-19T15:56:41.788Z,14.50
2024-02-19T15:59:08.628Z,14.60
2024-02-19T16:01:36.579Z,14.70
2024-02-19T16:04:04.400Z,14.70
2024-02-19T16:06:32.568Z,14.80
2024-02-19T16:09:00.702Z,14.80
2024-02-19T16:11:27.554Z,15.10
2024-02-19T16:13:55.260Z,15.50
2024-02-19T16:16:22.092Z,15.10
2024-02-19T16:18:49.151Z,15.00
2024-02-19T16:21:16.251Z,14.60
2024-02-19T16:23:43.952Z,14.10
2024-02-19T16:26:12.156Z,13.90
2024-02-19T16:28:42.794Z,13.60
2024-02-19T16:31:12.045Z,13.50
2024-02-19T16:33:42.924Z,13.40
2024-02-19T16:36:09.960Z,13.10
2024-02-19T16:38:40.768Z,13.10
2024-02-19T16:41:08.171Z,13.00
2024-02-19T16:43:35.598Z,13.00
2024-02-19T16:46:03.804Z,13.00
2024-02-19T16:48:38.069Z,12.90
2024-02-19T16:51:06.039Z,12.90
2024-02-19T16:53:36.079Z,12.80
2024-02-19T16:56:03.923Z,12.80
2024-02-19T16:58:33.731Z,12.70
2024-02-19T17:01:03.580Z,12.70
2024-02-19T17:03:30.707Z,12.60
2024-02-19T17:05:58.033Z,12.50
2024-02-19T17:08:28.425Z,12.40
2024-02-19T17:10:56.189Z,12.40
2024-02-19T17:13:23.530Z,12.40
2024-02-19T17:15:50.510Z,12.30
2024-02-19T17:18:17.982Z,12.30
2024-02-19T17:20:45.250Z,12.20
2024-02-19T17:23:15.368Z,12.20
2024-02-19T17:25:42.507Z,12.10
2024-02-19T17:28:09.596Z,12.10
2024-02-19T17:30:36.549Z,12.00
2024-02-19T17:33:03.759Z,12.00
2024-02-19T17:35:31.368Z,11.90
2024-02-19T17:37:58.277Z,11.90
2024-02-19T17:40:25.594Z,11.90
2024-02-19T17:42:52.774Z,11.80
2024-02-19T17:45:19.650Z,11.80
2024-02-19T17:47:51.514Z,11.70
2024-02-19T17:50:20.520Z,11.60
2024-02-19T17:52:48.645Z,11.60
2024-02-19T17:55:17.052Z,11.50
2024-02-19T17:57:44.539Z,11.50
2024-02-19T18:00:12.414Z,11.40
2024-02-19T18:02:39.371Z,11.40
2024-02-19T18:05:06.643Z,11.40
2024-02-19T18:07:33.587Z,11.40
2024-02-19T18:10:02.021Z,11.40
2024-02-19T18:12:29.013Z,11.40
2024-02-19T18:14:56.749Z,11.40
2024-02-19T18:17:23.651Z,11.40
2024-02-19T18:19:51.962Z,11.40
2024-02-19T18:22:21.684Z,11.30
2024-02-19T18:24:48.848Z,11.30
2024-02-19T18:27:16.827Z,11.30
2024-02-19T18:29:43.700Z,11.30
2024-02-19T18:32:10.743Z,11.20
2024-02-19T18:34:37.924Z,11.20
2024-02-19T18:37:05.868Z,11.10
2024-02-19T18:39:33.229Z,11.10
2024-02-19T18:42:00.457Z,11.10
2024-02-19T18:44:28.446Z,11.00
2024-02-19T18:46:55.354Z,10.90
2024-02-19T18:49:22.657Z,10.90
2024-02-19T18:51:49.708Z,10.80
2024-02-19T18:54:16.942Z,10.70
2024-02-19T18:56:43.878Z,10.70
2024-02-19T18:59:10.711Z,10.60
2024-02-19T19:01:40.097Z,10.60
2024-02-19T19:04:07.292Z,10.50
2024-02-19T19:06:34.283Z,10.50
2024-02-19T19:09:06.761Z,10.40
2024-02-19T19:11:35.471Z,10.40
2024-02-19T19:14:02.494Z,10.30
2024-02-19T19:16:29.883Z,10.30
2024-02-19T19:18:58.169Z,10.30
2024-02-19T19:21:25.237Z,10.20
2024-02-19T19:23:52.041Z,10.30
2024-02-19T19:26:18.873Z,10.20
2024-02-19T19:28:45.669Z,10.30
2024-02-19T19:31:13.442Z,10.20
2024-02-19T19:33:40.985Z,10.20
2024-02-19T19:36:07.982Z,10.10
2024-02-19T19:38:34.894Z,10.10
2024-02-19T19:41:03.446Z,10.10
2024-02-19T19:43:31.005Z,10.00
2024-02-19T19:45:58.039Z,10.10
2024-02-19T19:48:30.765Z,10.00
2024-02-19T19:50:58.612Z,10.00
2024-02-19T19:53:26.744Z,9.90
2024-02-19T19:55:54.786Z,9.90
2024-02-19T19:58:28.668Z,10.00
2024-02-19T20:00:59.773Z,9.90
2024-02-19T20:03:26.950Z,9.90
2024-02-19T20:05:54.293Z,10.00
2024-02-19T20:08:21.417Z,10.00
2024-02-19T20:10:48.935Z,10.00
2024-02-19T20:13:16.195Z,10.00
2024-02-19T20:15:43.962Z,10.00
2024-02-19T20:18:12.539Z,10.10
2024-02-19T20:20:39.974Z,10.00
2024-02-19T20:23:07.200Z,10.00
2024-02-19T20:25:34.422Z,10.00
2024-02-19T20:28:01.956Z,10.00
2024-02-19T20:30:28.875Z,10.00
2024-02-19T20:32:56.007Z,9.90
2024-02-19T20:35:23.827Z,9.90
2024-02-19T20:37:51.430Z,9.90
2024-02-19T20:40:19.421Z,9.90
2024-02-19T20:42:46.993Z,9.90
2024-02-19T20:45:14.012Z,9.90
2024-02-19T20:47:41.685Z,9.80
2024-02-19T20:50:10.654Z,9.80
2024-02-19T20:52:38.295Z,9.80
2024-02-19T20:55:06.192Z,9.70
2024-02-19T20:57:35.034Z,9.70
2024-02-19T21:00:04.170Z,9.60
2024-02-19T21:02:32.213Z,9.60
2024-02-19T21:04:59.312Z,9.50
2024-02-19T21:07:26.445Z,9.50
2024-02-19T21:09:58.215Z,9.40
2024-02-19T21:12:25.255Z,9.40
2024-02-19T21:14:52.235Z,9.40
2024-02-19T21:17:19.052Z,9.30
2024-02-19T21:19:46.093Z,9.30
2024-02-19T21:22:13.204Z,9.30
2024-02-19T21:24:40.310Z,9.30
2024-02-19T21:27:07.144Z,9.30
2024-02-19T21:29:34.003Z,9.30
2024-02-19T21:32:00.820Z,9.30
2024-02-19T21:34:27.747Z,9.30
2024-02-19T21:36:57.737Z,9.30
2024-02-19T21:39:26.248Z,9.30
2024-02-19T21:41:53.079Z,9.20
2024-02-19T21:44:21.334Z,9.20
2024-02-19T21:46:48.170Z,9.10
2024-02-19T21:49:20.905Z,9.10
2024-02-19T21:51:48.014Z,9.00
2024-02-19T21:54:15.339Z,9.10
2024-02-19T21:56:42.435Z,9.10
2024-02-19T21:59:09.290Z,9.10
2024-02-19T22:01:36.171Z,9.10
2024-02-19T22:04:03.714Z,9.10
2024-02-19T22:06:30.709Z,9.00
2024-02-19T22:08:59.956Z,9.00
2024-02-19T22:11:27.037Z,9.10
2024-02-19T22:13:53.927Z,9.10
2024-02-19T22:16:20.738Z,9.10
2024-02-19T22:18:47.635Z,9.10
2024-02-19T22:21:18.133Z,9.00
2024-02-19T22:23:45.287Z,9.00
2024-02-19T22:26:12.048Z,9.00
2024-02-19T22:28:38.852Z,9.00
2024-02-19T22:31:07.157Z,9.00
2024-02-19T22:33:34.311Z,9.00
2024-02-19T22:36:01.136Z,9.10
2024-02-19T22:38:27.926Z,9.00
2024-02-19T22:40:54.703Z,9.10
2024-02-19T22:43:21.566Z,9.00
2024-02-19T22:45:48.403Z,9.10
2024-02-19T22:48:15.437Z,9.10
2024-02-19T22:50:42.412Z,9.10
2024-02-19T22:53:09.485Z,9.00
2024-02-19T22:55:36.439Z,9.00
2024-02-19T22:58:03.916Z,9.10
2024-02-19T23:00:37.295Z,9.00
2024-02-19T23:03:05.077Z,9.00
2024-02-19T23:05:32.727Z,8.90
2024-02-19T23:08:00.507Z,8.90
2024-02-19T23:10:27.606Z,8.80
2024-02-19T23:12:54.620Z,8.80
2024-02-19T23:15:22.651Z,8.70
2024-02-19T23:17:50.126Z,8.80
2024-02-19T23:20:17.146Z,8.80
2024-02-19T23:22:47.489Z,8.80
2024-02-19T23:25:14.524Z,8.80
2024-02-19T23:27:41.616Z,8.80
2024-02-19T23:30:08.980Z,8.80
2024-02-19T23:32:38.861Z,8.80
2024-02-19T23:35:08.152Z,8.70
2024-02-19T23:37:35.178Z,8.70
2024-02-19T23:40:02.218Z,8.60
2024-02-19T23:42:29.073Z,8.50
2024-02-19T23:44:56.005Z,8.50
2024-02-19T23:47:23.823Z,8.50
2024-02-19T23:49:50.785Z,8.50
2024-02-19T23:52:17.622Z,8.40
2024-02-19T23:54:44.545Z,8.30
2024-02-19T23:57:11.447Z,8.20
2024-02-19T23:59:38.184Z,8.10
